createdAt,value
2016-07-31T00:00:02.608Z,0
2016-07-31T00:01:02.642Z,0
2016-07-31T00:02:01.931Z,0
2016-07-31T00:03:01.979Z,0
2016-07-31T00:04:01.966Z,0
2016-07-31T00:05:02.000Z,0
2016-07-31T00:06:02.025Z,0
2016-07-31T00:07:02.049Z,0
2016-07-31T00:08:02.061Z,0
2016-07-31T00:09:01.369Z,0
2016-07-31T00:10:02.100Z,0
2016-07-31T00:11:02.819Z,0
2016-07-31T00:12:01.505Z,0
2016-07-31T00:13:01.701Z,0
2016-07-31T00:14:02.910Z,0
2016-07-31T00:15:02.219Z,0
2016-07-31T00:16:02.947Z,0
2016-07-31T00:17:02.247Z,0
2016-07-31T00:18:02.270Z,0
2016-07-31T00:19:02.310Z,0
2016-07-31T00:20:02.269Z,0
2016-07-31T00:21:02.320Z,0
2016-07-31T00:22:03.090Z,0
2016-07-31T00:23:01.684Z,0
2016-07-31T00:24:03.098Z,0
2016-07-31T00:25:02.504Z,0
2016-07-31T00:26:03.142Z,0
2016-07-31T00:27:03.189Z,0
2016-07-31T00:28:02.790Z,0
2016-07-31T00:29:02.511Z,0
2016-07-31T00:30:03.298Z,0
2016-07-31T00:31:02.540Z,0
2016-07-31T00:32:02.573Z,0
2016-07-31T00:33:02.594Z,0
2016-07-31T00:34:02.600Z,0
2016-07-31T00:35:03.368Z,0
2016-07-31T00:36:03.369Z,0
2016-07-31T00:37:02.671Z,0
2016-07-31T00:38:02.691Z,0
2016-07-31T00:39:02.719Z,0
2016-07-31T00:40:02.750Z,0
2016-07-31T00:41:02.822Z,0
2016-07-31T00:42:02.105Z,0
2016-07-31T00:44:03.549Z,0
2016-07-31T00:45:02.821Z,0
2016-07-31T00:46:02.861Z,0
2016-07-31T00:47:02.171Z,0
2016-07-31T00:48:02.971Z,0
2016-07-31T00:49:03.650Z,0
2016-07-31T00:50:02.961Z,0
2016-07-31T00:51:03.667Z,0
2016-07-31T00:52:01.560Z,0
2016-07-31T00:53:03.012Z,0
2016-07-31T00:54:02.326Z,0
2016-07-31T00:55:03.032Z,0
2016-07-31T00:56:03.084Z,0
2016-07-31T00:57:03.172Z,0
2016-07-31T00:58:03.422Z,0
2016-07-31T00:59:03.254Z,0
2016-07-31T01:00:02.454Z,0
2016-07-31T01:01:02.496Z,0
2016-07-31T01:02:02.497Z,0
2016-07-31T01:03:02.513Z,0
2016-07-31T01:04:02.544Z,0
2016-07-31T01:05:02.556Z,0
2016-07-31T01:06:03.984Z,0
2016-07-31T01:07:04.074Z,0
2016-07-31T01:08:02.633Z,0
2016-07-31T01:09:03.362Z,0
2016-07-31T01:10:04.060Z,0
2016-07-31T01:11:04.093Z,0
2016-07-31T01:12:02.703Z,0
2016-07-31T01:13:05.669Z,0
2016-07-31T01:14:04.280Z,0
2016-07-31T01:15:03.458Z,0
2016-07-31T01:16:02.782Z,0
2016-07-31T01:17:04.199Z,0
2016-07-31T01:18:02.827Z,0
2016-07-31T01:19:03.548Z,0
2016-07-31T01:20:02.869Z,0
2016-07-31T01:21:03.703Z,0
2016-07-31T01:22:04.310Z,0
2016-07-31T01:23:04.368Z,0
2016-07-31T01:24:03.646Z,0
2016-07-31T01:25:03.763Z,0
2016-07-31T01:26:03.692Z,0
2016-07-31T01:27:03.093Z,0
2016-07-31T01:29:03.973Z,0
2016-07-31T01:30:03.844Z,0
2016-07-31T01:31:04.531Z,0
2016-07-31T01:32:03.108Z,0
2016-07-31T01:33:04.562Z,0
2016-07-31T01:34:03.153Z,0
2016-07-31T01:35:04.600Z,0
2016-07-31T01:36:03.898Z,0
2016-07-31T01:37:04.654Z,0
2016-07-31T01:38:03.339Z,0
2016-07-31T01:39:03.265Z,0
2016-07-31T01:40:03.290Z,0
2016-07-31T01:41:03.310Z,0
2016-07-31T01:42:04.032Z,0
2016-07-31T01:44:04.792Z,0
2016-07-31T01:45:04.074Z,0
2016-07-31T01:46:04.103Z,0
2016-07-31T01:47:04.233Z,0
2016-07-31T01:48:04.172Z,0
2016-07-31T01:49:02.763Z,0
2016-07-31T01:50:04.199Z,0
2016-07-31T01:51:03.519Z,0
2016-07-31T01:52:03.532Z,0
2016-07-31T01:53:04.965Z,0
2016-07-31T01:54:04.292Z,0
2016-07-31T01:55:04.282Z,0
2016-07-31T01:56:04.344Z,0
2016-07-31T01:57:04.351Z,0
2016-07-31T01:58:05.204Z,0
2016-07-31T01:59:04.404Z,0
2016-07-31T02:00:04.413Z,0
2016-07-31T02:01:05.121Z,0
2016-07-31T02:02:03.743Z,0
2016-07-31T02:03:04.469Z,0
2016-07-31T02:04:03.781Z,0
2016-07-31T02:05:05.217Z,0
2016-07-31T02:06:04.549Z,0
2016-07-31T02:07:05.259Z,0
2016-07-31T02:08:04.654Z,0
2016-07-31T02:09:04.637Z,0
2016-07-31T02:10:03.908Z,0
2016-07-31T02:11:04.000Z,0
2016-07-31T02:12:03.313Z,0
2016-07-31T02:13:05.393Z,0
2016-07-31T02:14:03.984Z,0
2016-07-31T02:15:04.771Z,0
2016-07-31T02:16:04.739Z,0
2016-07-31T02:17:05.506Z,0
2016-07-31T02:18:04.123Z,0
2016-07-31T02:19:04.095Z,0
2016-07-31T02:20:03.466Z,0
2016-07-31T02:21:04.852Z,0
2016-07-31T02:22:04.317Z,0
2016-07-31T02:23:04.868Z,0
2016-07-31T02:24:05.011Z,0
2016-07-31T02:25:05.638Z,0
2016-07-31T02:26:04.248Z,0
2016-07-31T02:27:04.960Z,0
2016-07-31T02:28:04.291Z,0
2016-07-31T02:29:04.313Z,0
2016-07-31T02:30:05.761Z,0
2016-07-31T02:31:05.035Z,0
2016-07-31T02:32:05.136Z,0
2016-07-31T02:33:04.434Z,0
2016-07-31T02:34:05.107Z,0
2016-07-31T02:35:05.839Z,0
2016-07-31T02:36:05.861Z,0
2016-07-31T02:37:04.533Z,0
2016-07-31T02:38:05.914Z,0
2016-07-31T02:39:06.089Z,0
2016-07-31T02:40:05.222Z,0
2016-07-31T02:41:06.070Z,0
2016-07-31T02:42:04.619Z,0
2016-07-31T02:43:04.588Z,0
2016-07-31T02:44:05.388Z,0
2016-07-31T02:45:05.341Z,0
2016-07-31T02:46:04.652Z,0
2016-07-31T02:47:04.674Z,0
2016-07-31T02:48:04.712Z,0
2016-07-31T02:49:04.723Z,0
2016-07-31T02:50:05.490Z,0
2016-07-31T02:51:06.168Z,0
2016-07-31T02:52:04.790Z,0
2016-07-31T02:53:04.092Z,0
2016-07-31T02:54:04.823Z,0
2016-07-31T02:55:06.255Z,0
2016-07-31T02:56:04.850Z,0
2016-07-31T02:57:04.983Z,0
2016-07-31T02:58:06.324Z,0
2016-07-31T02:59:04.910Z,0
2016-07-31T03:00:04.238Z,0
2016-07-31T03:01:04.962Z,0
2016-07-31T03:02:06.419Z,0
2016-07-31T03:03:05.832Z,0
2016-07-31T03:04:06.449Z,0
2016-07-31T03:05:05.822Z,0
2016-07-31T03:06:06.491Z,0
2016-07-31T03:07:05.103Z,0
2016-07-31T03:08:05.248Z,0
2016-07-31T03:09:06.544Z,0
2016-07-31T03:10:06.577Z,0
2016-07-31T03:11:05.882Z,4
2016-07-31T03:12:06.609Z,4
2016-07-31T03:13:05.943Z,0
2016-07-31T03:14:05.512Z,0
2016-07-31T03:15:05.972Z,4
2016-07-31T03:16:06.704Z,4
2016-07-31T03:17:05.991Z,4
2016-07-31T03:18:04.609Z,4
2016-07-31T03:19:06.043Z,4
2016-07-31T03:20:06.811Z,4
2016-07-31T03:21:05.409Z,8
2016-07-31T03:22:06.853Z,8
2016-07-31T03:23:05.451Z,12
2016-07-31T03:24:05.441Z,12
2016-07-31T03:25:04.757Z,12
2016-07-31T03:26:06.190Z,16
2016-07-31T03:27:06.213Z,20
2016-07-31T03:28:06.949Z,24
2016-07-31T03:29:05.542Z,28
2016-07-31T03:30:06.293Z,32
2016-07-31T03:31:05.601Z,36
2016-07-31T03:32:04.903Z,40
2016-07-31T03:33:06.337Z,48
2016-07-31T03:34:07.064Z,48
2016-07-31T03:35:04.971Z,52
2016-07-31T03:36:06.534Z,52
2016-07-31T03:37:07.120Z,52
2016-07-31T03:38:06.488Z,56
2016-07-31T03:39:05.772Z,64
2016-07-31T03:40:05.773Z,72
2016-07-31T03:41:05.795Z,84
2016-07-31T03:42:06.524Z,96
2016-07-31T03:43:05.120Z,108
2016-07-31T03:44:07.339Z,116
2016-07-31T03:45:07.281Z,124
2016-07-31T03:46:05.899Z,132
2016-07-31T03:47:06.618Z,140
2016-07-31T03:48:05.926Z,152
2016-07-31T03:49:06.047Z,164
2016-07-31T03:50:06.679Z,176
2016-07-31T03:51:06.724Z,196
2016-07-31T03:52:06.729Z,212
2016-07-31T03:53:07.457Z,228
2016-07-31T03:54:07.479Z,240
2016-07-31T03:55:06.069Z,252
2016-07-31T03:56:06.821Z,280
2016-07-31T03:57:06.819Z,312
2016-07-31T03:58:07.559Z,356
2016-07-31T03:59:06.177Z,400
2016-07-31T04:00:07.031Z,452
2016-07-31T04:01:07.632Z,488
2016-07-31T04:02:07.661Z,512
2016-07-31T04:03:06.240Z,512
2016-07-31T04:04:06.999Z,512
2016-07-31T04:05:07.003Z,524
2016-07-31T04:06:07.064Z,548
2016-07-31T04:07:07.039Z,588
2016-07-31T04:08:05.640Z,648
2016-07-31T04:09:07.073Z,732
2016-07-31T04:10:05.685Z,832
2016-07-31T04:11:07.113Z,952
2016-07-31T04:12:07.137Z,1080
2016-07-31T04:13:07.314Z,1228
2016-07-31T04:14:07.252Z,1388
2016-07-31T04:15:07.996Z,1580
2016-07-31T04:16:07.299Z,1792
2016-07-31T04:17:07.307Z,1988
2016-07-31T04:18:07.971Z,2116
2016-07-31T04:19:08.099Z,2200
2016-07-31T04:20:08.011Z,2304
2016-07-31T04:21:07.322Z,2368
2016-07-31T04:22:06.680Z,2344
2016-07-31T04:23:07.365Z,2224
2016-07-31T04:24:08.109Z,2084
2016-07-31T04:25:07.421Z,1984
2016-07-31T04:26:08.141Z,1944
2016-07-31T04:27:07.450Z,1956
2016-07-31T04:28:07.526Z,2000
2016-07-31T04:29:06.780Z,2044
2016-07-31T04:30:07.553Z,2084
2016-07-31T04:31:07.520Z,2132
2016-07-31T04:32:08.303Z,2168
2016-07-31T04:33:06.902Z,2148
2016-07-31T04:34:08.298Z,2076
2016-07-31T04:35:06.904Z,1996
2016-07-31T04:36:08.370Z,1908
2016-07-31T04:37:07.746Z,1812
2016-07-31T04:38:07.690Z,1668
2016-07-31T04:39:06.981Z,1508
2016-07-31T04:40:07.717Z,1368
2016-07-31T04:41:08.496Z,1268
2016-07-31T04:42:07.165Z,1208
2016-07-31T04:43:08.512Z,1160
2016-07-31T04:44:08.131Z,1112
2016-07-31T04:45:08.559Z,1052
2016-07-31T04:46:08.559Z,996
2016-07-31T04:47:06.459Z,960
2016-07-31T04:48:08.600Z,948
2016-07-31T04:49:08.628Z,952
2016-07-31T04:50:07.944Z,952
2016-07-31T04:51:08.660Z,944
2016-07-31T04:52:08.080Z,932
2016-07-31T04:53:08.726Z,932
2016-07-31T04:54:08.791Z,940
2016-07-31T04:55:07.329Z,964
2016-07-31T04:56:08.068Z,988
2016-07-31T04:57:08.788Z,984
2016-07-31T04:58:08.100Z,928
2016-07-31T04:59:08.820Z,868
2016-07-31T05:00:08.150Z,848
2016-07-31T05:01:07.647Z,896
2016-07-31T05:02:08.899Z,1008
2016-07-31T05:03:09.052Z,1144
2016-07-31T05:04:08.223Z,1276
2016-07-31T05:05:08.268Z,1424
2016-07-31T05:06:08.270Z,1560
2016-07-31T05:07:06.887Z,1676
2016-07-31T05:08:08.307Z,1788
2016-07-31T05:09:07.624Z,1760
2016-07-31T05:10:07.717Z,1432
2016-07-31T05:11:07.665Z,964
2016-07-31T05:12:08.388Z,636
2016-07-31T05:13:07.715Z,496
2016-07-31T05:14:09.084Z,504
2016-07-31T05:15:07.749Z,620
2016-07-31T05:16:08.526Z,820
2016-07-31T05:17:09.208Z,928
2016-07-31T05:18:08.556Z,968
2016-07-31T05:19:08.556Z,1016
2016-07-31T05:20:08.627Z,1008
2016-07-31T05:21:08.618Z,952
2016-07-31T05:22:07.198Z,904
2016-07-31T05:23:09.337Z,896
2016-07-31T05:24:09.398Z,948
2016-07-31T05:25:09.494Z,1028
2016-07-31T05:26:07.982Z,1116
2016-07-31T05:27:08.755Z,1168
2016-07-31T05:28:08.031Z,1176
2016-07-31T05:30:09.508Z,1220
2016-07-31T05:31:09.596Z,1208
2016-07-31T05:32:08.827Z,1208
2016-07-31T05:33:08.842Z,1208
2016-07-31T05:34:08.158Z,1212
2016-07-31T05:35:07.486Z,1204
2016-07-31T05:36:08.196Z,1220
2016-07-31T05:37:08.925Z,1336
2016-07-31T05:38:09.204Z,1496
2016-07-31T05:39:09.682Z,1624
2016-07-31T05:40:09.109Z,1648
2016-07-31T05:41:08.393Z,1492
2016-07-31T05:42:07.635Z,1376
2016-07-31T05:43:09.765Z,1232
2016-07-31T05:44:08.379Z,1116
2016-07-31T05:45:08.397Z,1036
2016-07-31T05:46:09.113Z,1024
2016-07-31T05:47:09.157Z,1104
2016-07-31T05:48:09.186Z,1308
2016-07-31T05:49:09.195Z,1572
2016-07-31T05:50:09.198Z,1692
2016-07-31T05:51:09.279Z,1780
2016-07-31T05:52:09.237Z,1776
2016-07-31T05:53:10.114Z,1684
2016-07-31T05:54:08.581Z,1548
2016-07-31T05:55:09.300Z,1352
2016-07-31T05:56:10.032Z,1196
2016-07-31T05:57:09.371Z,1008
2016-07-31T05:58:09.373Z,864
2016-07-31T05:59:08.696Z,852
2016-07-31T06:00:09.448Z,920
2016-07-31T06:01:09.424Z,984
2016-07-31T06:02:09.445Z,1104
2016-07-31T06:03:09.467Z,1332
2016-07-31T06:04:09.511Z,1536
2016-07-31T06:05:08.814Z,1640
2016-07-31T06:06:08.121Z,1696
2016-07-31T06:07:09.534Z,1684
2016-07-31T06:08:08.890Z,1632
2016-07-31T06:09:09.604Z,1652
2016-07-31T06:10:09.626Z,1728
2016-07-31T06:11:09.056Z,1784
2016-07-31T06:12:08.260Z,1756
2016-07-31T06:13:10.374Z,1728
2016-07-31T06:14:09.685Z,1656
2016-07-31T06:15:09.846Z,1420
2016-07-31T06:16:09.745Z,1144
2016-07-31T06:17:09.839Z,972
2016-07-31T06:18:09.085Z,888
2016-07-31T06:19:10.574Z,856
2016-07-31T06:20:09.807Z,892
2016-07-31T06:21:09.836Z,936
2016-07-31T06:22:09.870Z,956
2016-07-31T06:23:09.867Z,980
2016-07-31T06:24:10.810Z,1076
2016-07-31T06:25:09.199Z,1272
2016-07-31T06:26:09.937Z,1572
2016-07-31T06:27:09.968Z,2108
2016-07-31T06:28:09.286Z,2624
2016-07-31T06:29:10.099Z,2820
2016-07-31T06:30:10.030Z,2836
2016-07-31T06:31:10.753Z,2688
2016-07-31T06:32:10.097Z,2532
2016-07-31T06:33:10.086Z,2476
2016-07-31T06:34:10.096Z,2428
2016-07-31T06:35:10.264Z,2436
2016-07-31T06:36:10.156Z,2600
2016-07-31T06:37:10.886Z,2836
2016-07-31T06:38:10.898Z,3124
2016-07-31T06:39:09.526Z,3272
2016-07-31T06:40:10.960Z,3016
2016-07-31T06:41:09.597Z,2404
2016-07-31T06:42:10.512Z,1760
2016-07-31T06:43:11.054Z,1512
2016-07-31T06:44:10.328Z,1364
2016-07-31T06:45:10.494Z,1140
2016-07-31T06:46:09.800Z,1068
2016-07-31T06:47:10.415Z,1016
2016-07-31T06:48:09.805Z,1028
2016-07-31T06:49:10.423Z,1200
2016-07-31T06:50:10.558Z,1364
2016-07-31T06:51:09.761Z,1472
2016-07-31T06:52:10.544Z,1600
2016-07-31T06:53:11.206Z,1688
2016-07-31T06:54:10.572Z,1580
2016-07-31T06:55:09.848Z,1484
2016-07-31T06:56:10.571Z,1412
2016-07-31T06:57:09.875Z,1340
2016-07-31T06:58:10.630Z,1320
2016-07-31T06:59:10.779Z,1140
2016-07-31T07:00:10.666Z,944
2016-07-31T07:01:10.683Z,788
2016-07-31T07:02:10.006Z,672
2016-07-31T07:03:10.766Z,612
2016-07-31T07:04:10.039Z,564
2016-07-31T07:05:10.826Z,572
2016-07-31T07:06:10.078Z,628
2016-07-31T07:07:10.805Z,640
2016-07-31T07:08:11.536Z,776
2016-07-31T07:09:11.597Z,976
2016-07-31T07:10:10.876Z,1448
2016-07-31T07:11:10.885Z,2572
2016-07-31T07:12:10.282Z,4104
2016-07-31T07:13:10.221Z,5088
2016-07-31T07:14:11.658Z,5228
2016-07-31T07:15:10.977Z,5056
2016-07-31T07:16:11.719Z,4488
2016-07-31T07:17:11.006Z,3700
2016-07-31T07:18:11.163Z,2996
2016-07-31T07:19:11.058Z,2232
2016-07-31T07:20:11.143Z,1564
2016-07-31T07:21:11.106Z,1060
2016-07-31T07:22:11.127Z,784
2016-07-31T07:23:11.126Z,672
2016-07-31T07:24:10.449Z,672
2016-07-31T07:25:11.249Z,744
2016-07-31T07:26:10.497Z,872
2016-07-31T07:27:11.253Z,1036
2016-07-31T07:28:11.249Z,1296
2016-07-31T07:29:11.438Z,1472
2016-07-31T07:30:11.364Z,1736
2016-07-31T07:31:11.333Z,2092
2016-07-31T07:32:12.010Z,2628
2016-07-31T07:33:10.627Z,3516
2016-07-31T07:34:11.365Z,4088
2016-07-31T07:35:12.121Z,4352
2016-07-31T07:36:10.779Z,4444
2016-07-31T07:37:10.696Z,4324
2016-07-31T07:38:12.158Z,3880
2016-07-31T07:39:11.466Z,3532
2016-07-31T07:40:10.783Z,3484
2016-07-31T07:41:10.800Z,3516
2016-07-31T07:42:11.555Z,3792
2016-07-31T07:43:11.532Z,4052
2016-07-31T07:44:11.576Z,4088
2016-07-31T07:45:11.586Z,3948
2016-07-31T07:46:11.616Z,3684
2016-07-31T07:47:11.626Z,3568
2016-07-31T07:48:12.338Z,3532
2016-07-31T07:49:11.795Z,3484
2016-07-31T07:50:12.395Z,3392
2016-07-31T07:51:12.432Z,3428
2016-07-31T07:52:11.018Z,3424
2016-07-31T07:53:11.830Z,3400
2016-07-31T07:54:11.767Z,3132
2016-07-31T07:55:11.854Z,2988
2016-07-31T07:56:11.101Z,3112
2016-07-31T07:57:11.134Z,2612
2016-07-31T07:58:12.566Z,2128
2016-07-31T07:59:11.931Z,2084
2016-07-31T08:00:11.898Z,1860
2016-07-31T08:01:11.918Z,1920
2016-07-31T08:02:10.526Z,1860
2016-07-31T08:03:12.662Z,1544
2016-07-31T08:04:12.707Z,1480
2016-07-31T08:05:12.728Z,1436
2016-07-31T08:06:11.287Z,1320
2016-07-31T08:07:12.037Z,1248
2016-07-31T08:08:12.218Z,1224
2016-07-31T08:09:11.492Z,1376
2016-07-31T08:10:12.833Z,1764
2016-07-31T08:11:12.822Z,2308
2016-07-31T08:12:12.142Z,2652
2016-07-31T08:13:11.555Z,2724
2016-07-31T08:14:12.200Z,3108
2016-07-31T08:15:12.905Z,3596
2016-07-31T08:16:12.240Z,3848
2016-07-31T08:17:12.959Z,4036
2016-07-31T08:18:11.637Z,4472
2016-07-31T08:19:13.080Z,4676
2016-07-31T08:20:12.308Z,4836
2016-07-31T08:21:13.025Z,5320
2016-07-31T08:22:12.351Z,5828
2016-07-31T08:23:13.234Z,6004
2016-07-31T08:24:12.371Z,5056
2016-07-31T08:25:13.179Z,4024
2016-07-31T08:26:13.147Z,3452
2016-07-31T08:27:13.168Z,3124
2016-07-31T08:28:11.777Z,2992
2016-07-31T08:29:11.858Z,2948
2016-07-31T08:30:11.878Z,2920
2016-07-31T08:31:12.517Z,2988
2016-07-31T08:32:13.248Z,3120
2016-07-31T08:33:12.567Z,3548
2016-07-31T08:34:13.337Z,3732
2016-07-31T08:35:13.324Z,4092
2016-07-31T08:36:11.214Z,4344
2016-07-31T08:37:13.347Z,4480
2016-07-31T08:38:11.968Z,4592
2016-07-31T08:39:12.716Z,4744
2016-07-31T08:40:13.417Z,5200
2016-07-31T08:41:12.727Z,5796
2016-07-31T08:42:13.469Z,6584
2016-07-31T08:43:12.068Z,7404
2016-07-31T08:44:13.505Z,8080
2016-07-31T08:45:12.134Z,8376
2016-07-31T08:46:11.446Z,8596
2016-07-31T08:47:12.860Z,8808
2016-07-31T08:48:12.868Z,9304
2016-07-31T08:49:13.597Z,10052
2016-07-31T08:50:13.627Z,10628
2016-07-31T08:51:13.662Z,11668
2016-07-31T08:52:13.665Z,12324
2016-07-31T08:53:12.976Z,13760
2016-07-31T08:54:13.034Z,14440
2016-07-31T08:55:13.731Z,14064
2016-07-31T08:56:13.125Z,13860
2016-07-31T08:57:13.084Z,14220
2016-07-31T08:58:13.137Z,13888
2016-07-31T08:59:13.818Z,13320
2016-07-31T09:00:12.427Z,12444
2016-07-31T09:01:13.877Z,12488
2016-07-31T09:02:12.467Z,13064
2016-07-31T09:03:13.907Z,12932
2016-07-31T09:04:13.921Z,12744
2016-07-31T09:05:12.640Z,13304
2016-07-31T09:06:13.977Z,13796
2016-07-31T09:07:13.289Z,14356
2016-07-31T09:08:12.599Z,14948
2016-07-31T09:09:13.351Z,15808
2016-07-31T09:10:11.927Z,15180
2016-07-31T09:11:13.379Z,14472
2016-07-31T09:12:14.127Z,14932
2016-07-31T09:13:13.500Z,17568
2016-07-31T09:14:13.526Z,19392
2016-07-31T09:15:14.172Z,20448
2016-07-31T09:16:14.207Z,22400
2016-07-31T09:17:14.208Z,18880
2016-07-31T09:18:13.555Z,17344
2016-07-31T09:19:12.941Z,18240
2016-07-31T09:20:13.687Z,19936
2016-07-31T09:21:12.887Z,19584
2016-07-31T09:22:13.631Z,19072
2016-07-31T09:23:14.375Z,21536
2016-07-31T09:24:13.678Z,24640
2016-07-31T09:25:13.727Z,24576
2016-07-31T09:26:13.728Z,28640
2016-07-31T09:27:14.467Z,29440
2016-07-31T09:28:14.501Z,29472
2016-07-31T09:29:13.808Z,29056
2016-07-31T09:30:13.830Z,27776
2016-07-31T09:31:14.559Z,27296
2016-07-31T09:32:14.574Z,26176
2016-07-31T09:33:13.899Z,26272
2016-07-31T09:34:13.917Z,25792
2016-07-31T09:35:13.932Z,24256
2016-07-31T09:36:13.979Z,22592
2016-07-31T09:37:13.278Z,18656
2016-07-31T09:38:14.728Z,15808
2016-07-31T09:39:13.335Z,18208
2016-07-31T09:40:13.395Z,18368
2016-07-31T09:41:12.737Z,20832
2016-07-31T09:42:14.153Z,23744
2016-07-31T09:43:14.151Z,25536
2016-07-31T09:44:14.221Z,25152
2016-07-31T09:45:14.208Z,23168
2016-07-31T09:46:14.939Z,22976
2016-07-31T09:47:14.937Z,22304
2016-07-31T09:48:14.289Z,23424
2016-07-31T09:49:13.600Z,24160
2016-07-31T09:50:14.321Z,25184
2016-07-31T09:51:15.070Z,23360
2016-07-31T09:52:14.368Z,21408
2016-07-31T09:53:14.393Z,20192
2016-07-31T09:54:14.423Z,19552
2016-07-31T09:55:14.452Z,17696
2016-07-31T09:56:15.181Z,14032
2016-07-31T09:57:15.299Z,13636
2016-07-31T09:58:14.523Z,13440
2016-07-31T09:59:14.567Z,13624
2016-07-31T10:00:14.117Z,15280
2016-07-31T10:01:14.598Z,15400
2016-07-31T10:02:14.709Z,15380
2016-07-31T10:03:13.958Z,14856
2016-07-31T10:04:14.708Z,15256
2016-07-31T10:05:14.718Z,15208
2016-07-31T10:06:15.439Z,15936
2016-07-31T10:07:15.502Z,17408
2016-07-31T10:08:14.799Z,18240
2016-07-31T10:09:14.808Z,19200
2016-07-31T10:10:15.548Z,20896
2016-07-31T10:11:14.855Z,19104
2016-07-31T10:12:15.588Z,17536
2016-07-31T10:13:14.918Z,16768
2016-07-31T10:14:14.955Z,17024
2016-07-31T10:16:14.990Z,20288
2016-07-31T10:17:14.372Z,21312
2016-07-31T10:18:13.770Z,21920
2016-07-31T10:19:15.072Z,23264
2016-07-31T10:20:13.688Z,23776
2016-07-31T10:21:15.102Z,20160
2016-07-31T10:22:14.423Z,18560
2016-07-31T10:23:14.472Z,17760
2016-07-31T10:24:15.298Z,18816
2016-07-31T10:25:15.922Z,18880
2016-07-31T10:26:14.699Z,18528
2016-07-31T10:27:14.579Z,18720
2016-07-31T10:28:14.571Z,19712
2016-07-31T10:29:15.321Z,21856
2016-07-31T10:31:15.377Z,22080
2016-07-31T10:32:13.985Z,22048
2016-07-31T10:33:16.179Z,22048
2016-07-31T10:34:16.192Z,20672
2016-07-31T10:35:14.780Z,19328
2016-07-31T10:36:16.205Z,19040
2016-07-31T10:37:15.558Z,18080
2016-07-31T10:38:14.871Z,18240
2016-07-31T10:39:14.910Z,18688
2016-07-31T10:40:14.921Z,17696
2016-07-31T10:41:16.469Z,16864
2016-07-31T10:42:14.980Z,16768
2016-07-31T10:43:16.424Z,18368
2016-07-31T10:44:15.831Z,20096
2016-07-31T10:46:15.918Z,22048
2016-07-31T10:47:16.523Z,22656
2016-07-31T10:48:15.132Z,22592
2016-07-31T10:49:16.570Z,22432
2016-07-31T10:50:16.619Z,22272
2016-07-31T10:51:14.488Z,21920
2016-07-31T10:52:16.638Z,20480
2016-07-31T10:53:15.252Z,18464
2016-07-31T10:54:15.988Z,16992
2016-07-31T10:55:15.390Z,16832
2016-07-31T10:56:15.328Z,16960
2016-07-31T10:57:16.129Z,16032
2016-07-31T10:58:16.086Z,15088
2016-07-31T10:59:16.158Z,14452
2016-07-31T11:00:16.848Z,13504
2016-07-31T11:01:16.170Z,13548
2016-07-31T11:02:16.939Z,13172
2016-07-31T11:03:16.218Z,13368
2016-07-31T11:04:15.617Z,13448
2016-07-31T11:05:15.577Z,13440
2016-07-31T11:06:17.157Z,13780
2016-07-31T11:07:17.192Z,14880
2016-07-31T11:08:16.486Z,15808
2016-07-31T11:09:17.188Z,17152
2016-07-31T11:10:15.785Z,19072
2016-07-31T11:11:17.191Z,18752
2016-07-31T11:12:16.578Z,16384
2016-07-31T11:13:16.537Z,15872
2016-07-31T11:14:15.806Z,16896
2016-07-31T11:15:16.525Z,19072
2016-07-31T11:16:16.605Z,20992
2016-07-31T11:17:15.259Z,21824
2016-07-31T11:18:17.364Z,18528
2016-07-31T11:19:16.035Z,15328
2016-07-31T11:20:15.960Z,12132
2016-07-31T11:21:16.698Z,10664
2016-07-31T11:22:17.423Z,10780
2016-07-31T11:23:16.761Z,11080
2016-07-31T11:24:16.781Z,11624
2016-07-31T11:25:16.078Z,12716
2016-07-31T11:26:17.006Z,14064
2016-07-31T11:27:17.556Z,15680
2016-07-31T11:28:17.695Z,16928
2016-07-31T11:29:17.596Z,16768
2016-07-31T11:30:17.013Z,16192
2016-07-31T11:31:16.957Z,15228
2016-07-31T11:32:17.725Z,14344
2016-07-31T11:33:17.711Z,14264
2016-07-31T11:34:17.044Z,14988
2016-07-31T11:35:17.058Z,15840
2016-07-31T11:36:15.685Z,16288
2016-07-31T11:37:15.701Z,17536
2016-07-31T11:38:17.130Z,18944
2016-07-31T11:39:17.337Z,17728
2016-07-31T11:40:17.194Z,15264
2016-07-31T11:41:18.027Z,13328
2016-07-31T11:42:17.971Z,13376
2016-07-31T11:43:18.011Z,12564
2016-07-31T11:44:18.007Z,11976
2016-07-31T11:45:17.316Z,11748
2016-07-31T11:46:17.349Z,11712
2016-07-31T11:47:17.380Z,11904
2016-07-31T11:48:17.395Z,11976
2016-07-31T11:49:16.724Z,12160
2016-07-31T11:50:17.467Z,11560
2016-07-31T11:51:18.192Z,10816
2016-07-31T11:52:18.247Z,10244
2016-07-31T11:53:18.239Z,10096
2016-07-31T11:54:17.556Z,10300
2016-07-31T11:55:18.309Z,10996
2016-07-31T11:56:17.629Z,11876
2016-07-31T11:57:17.649Z,12724
2016-07-31T11:58:16.969Z,13316
2016-07-31T11:59:17.705Z,13752
2016-07-31T12:00:17.704Z,13104
2016-07-31T12:01:17.779Z,13036
2016-07-31T12:02:17.069Z,14060
2016-07-31T12:03:18.667Z,16288
2016-07-31T12:04:17.839Z,17920
2016-07-31T12:05:17.858Z,15936
2016-07-31T12:06:17.865Z,13432
2016-07-31T12:07:17.218Z,12980
2016-07-31T12:08:17.922Z,13664
2016-07-31T12:09:18.696Z,13432
2016-07-31T12:10:17.983Z,11716
2016-07-31T12:11:17.340Z,11336
2016-07-31T12:12:17.378Z,12100
2016-07-31T12:13:18.771Z,13552
2016-07-31T12:14:18.090Z,15132
2016-07-31T12:15:17.402Z,14808
2016-07-31T12:16:19.206Z,14304
2016-07-31T12:17:19.028Z,14536
2016-07-31T12:18:18.215Z,13956
2016-07-31T12:19:17.590Z,13720
2016-07-31T12:20:18.247Z,14568
2016-07-31T12:21:19.038Z,15144
2016-07-31T12:22:18.394Z,13648
2016-07-31T12:23:17.671Z,13004
2016-07-31T12:24:19.111Z,13224
2016-07-31T12:25:17.680Z,14560
2016-07-31T12:26:19.114Z,14900
2016-07-31T12:27:19.166Z,15488
2016-07-31T12:28:19.145Z,16128
2016-07-31T12:29:19.177Z,17184
2016-07-31T12:30:18.504Z,17568
2016-07-31T12:31:19.293Z,17056
2016-07-31T12:32:19.276Z,16512
2016-07-31T12:33:19.283Z,16128
2016-07-31T12:34:17.922Z,15484
2016-07-31T12:35:19.338Z,15124
2016-07-31T12:36:17.978Z,15076
2016-07-31T12:37:17.998Z,14448
2016-07-31T12:38:18.006Z,14020
2016-07-31T12:39:18.747Z,13916
2016-07-31T12:40:18.775Z,13484
2016-07-31T12:41:19.577Z,12680
2016-07-31T12:42:19.551Z,11600
2016-07-31T12:43:18.252Z,11212
2016-07-31T12:44:18.165Z,11552
2016-07-31T12:45:18.946Z,12248
2016-07-31T12:46:19.684Z,13432
2016-07-31T12:47:19.708Z,15252
2016-07-31T12:48:18.992Z,18432
2016-07-31T12:49:17.619Z,16800
2016-07-31T12:50:19.759Z,14844
2016-07-31T12:51:19.225Z,13624
2016-07-31T12:52:19.798Z,13048
2016-07-31T12:53:19.818Z,15232
2016-07-31T12:54:19.409Z,18912
2016-07-31T12:55:19.279Z,20224
2016-07-31T12:56:19.449Z,20768
2016-07-31T12:57:19.907Z,20640
2016-07-31T12:58:19.996Z,20704
2016-07-31T12:59:19.970Z,21504
2016-07-31T13:00:19.399Z,22304
2016-07-31T13:01:20.037Z,21472
2016-07-31T13:02:18.645Z,19776
2016-07-31T13:03:19.400Z,17888
2016-07-31T13:04:17.997Z,17952
2016-07-31T13:05:19.651Z,17440
2016-07-31T13:06:19.477Z,16672
2016-07-31T13:07:19.500Z,16288
2016-07-31T13:08:19.519Z,16320
2016-07-31T13:09:20.302Z,16576
2016-07-31T13:10:20.297Z,17248
2016-07-31T13:11:19.647Z,16768
2016-07-31T13:12:19.728Z,16032
2016-07-31T13:13:19.639Z,16064
2016-07-31T13:14:19.711Z,17248
2016-07-31T13:15:19.720Z,17408
2016-07-31T13:16:20.515Z,16608
2016-07-31T13:17:20.506Z,14388
2016-07-31T13:18:19.804Z,13188
2016-07-31T13:19:19.833Z,13176
2016-07-31T13:20:19.170Z,13268
2016-07-31T13:21:19.909Z,13196
2016-07-31T13:22:19.897Z,13128
2016-07-31T13:23:19.930Z,13248
2016-07-31T13:24:19.958Z,13380
2016-07-31T13:25:19.435Z,13788
2016-07-31T13:26:20.032Z,14508
2016-07-31T13:27:19.418Z,14436
2016-07-31T13:28:19.484Z,13928
2016-07-31T13:29:20.200Z,13660
2016-07-31T13:30:19.708Z,13408
2016-07-31T13:31:19.487Z,13220
2016-07-31T13:32:20.166Z,13404
2016-07-31T13:33:19.530Z,13916
2016-07-31T13:34:19.832Z,14272
2016-07-31T13:35:20.980Z,14072
2016-07-31T13:36:19.650Z,13788
2016-07-31T13:37:20.314Z,13852
2016-07-31T13:38:21.053Z,13904
2016-07-31T13:39:21.085Z,14232